createdAt,value
2024-04-25T00:01:49.656Z,97839.34
2024-04-25T00:04:16.672Z,97840.16
2024-04-25T00:06:46.192Z,97836.34
2024-04-25T00:09:13.088Z,97843.06
2024-04-25T00:11:40.214Z,97845.59
2024-04-25T00:14:07.393Z,97846.34
2024-04-25T00:16:34.384Z,97846.47
2024-04-25T00:19:03.113Z,97845.38
2024-04-25T00:21:30.110Z,97846.13
2024-04-25T00:23:58.259Z,97850.25
2024-04-25T00:26:25.123Z,97840.47
2024-04-25T00:28:51.984Z,97838.97
2024-04-25T00:31:21.553Z,97832.38
2024-04-25T00:33:48.792Z,97836.03
2024-04-25T00:36:15.666Z,97831.31
2024-04-25T00:38:42.540Z,97831.72
2024-04-25T00:41:09.437Z,97830.13
2024-04-25T00:43:36.284Z,97831.56
2024-04-25T00:46:03.246Z,97828.97
2024-04-25T00:48:31.533Z,97842.47
2024-04-25T00:51:02.669Z,97835.53
2024-04-25T00:53:30.614Z,97828.91
2024-04-25T00:56:00.488Z,97827.06
2024-04-25T00:58:28.524Z,97824.81
2024-04-25T01:00:58.193Z,97823.59
2024-04-25T01:03:25.498Z,97825.88
2024-04-25T01:05:55.616Z,97825.88
2024-04-25T01:08:23.897Z,97824.56
2024-04-25T01:10:53.052Z,97816.28
2024-04-25T01:13:19.935Z,97827.06
2024-04-25T01:15:46.975Z,97826.22
2024-04-25T01:18:17.169Z,97817.38
2024-04-25T01:20:44.205Z,97823.28
2024-04-25T01:23:13.171Z,97825.19
2024-04-25T01:25:40.623Z,97818.09
2024-04-25T01:28:07.709Z,97811.81
2024-04-25T01:30:35.331Z,97815.28
2024-04-25T01:33:04.709Z,97814.00
2024-04-25T01:35:34.223Z,97814.25
2024-04-25T01:38:01.707Z,97812.75
2024-04-25T01:40:28.956Z,97810.88
2024-04-25T01:42:55.850Z,97812.59
2024-04-25T01:45:22.730Z,97808.75
2024-04-25T01:47:52.420Z,97811.72
2024-04-25T01:50:19.348Z,97810.47
2024-04-25T01:52:46.246Z,97810.88
2024-04-25T01:55:13.761Z,97808.75
2024-04-25T01:57:40.629Z,97812.16
2024-04-25T02:00:08.421Z,97806.03
2024-04-25T02:02:35.355Z,97806.22
2024-04-25T02:05:02.433Z,97811.84
2024-04-25T02:07:29.351Z,97803.91
2024-04-25T02:09:56.205Z,97803.19
2024-04-25T02:12:23.023Z,97805.03
2024-04-25T02:14:58.919Z,97809.53
2024-04-25T02:17:26.186Z,97804.53
2024-04-25T02:19:53.112Z,97802.84
2024-04-25T02:22:38.708Z,97799.41
2024-04-25T02:25:16.187Z,97805.94
2024-04-25T02:27:43.228Z,97802.13
2024-04-25T02:30:10.603Z,97793.88
2024-04-25T02:32:37.575Z,97793.69
2024-04-25T02:35:04.847Z,97798.16
2024-04-25T02:37:31.743Z,97798.53
2024-04-25T02:39:58.572Z,97801.44
2024-04-25T02:42:25.391Z,97804.66
2024-04-25T02:44:52.228Z,97795.41
2024-04-25T02:47:19.158Z,97795.56
2024-04-25T02:49:46.043Z,97797.22
2024-04-25T02:52:12.926Z,97800.78
2024-04-25T02:54:40.688Z,97793.84
2024-04-25T02:57:07.563Z,97801.84
2024-04-25T02:59:34.542Z,97787.94
2024-04-25T03:02:04.753Z,97788.03
2024-04-25T03:04:32.398Z,97788.19
2024-04-25T03:06:59.317Z,97787.09
2024-04-25T03:09:26.187Z,97787.28
2024-04-25T03:11:53.053Z,97779.69
2024-04-25T03:14:21.639Z,97782.16
2024-04-25T03:16:51.515Z,97778.19
2024-04-25T03:19:20.693Z,97776.63
2024-04-25T03:21:47.516Z,97776.38
2024-04-25T03:24:14.338Z,97766.44
2024-04-25T03:26:41.264Z,97784.16
2024-04-25T03:29:08.306Z,97776.69
2024-04-25T03:31:38.105Z,97778.94
2024-04-25T03:34:05.961Z,97777.31
2024-04-25T03:36:32.836Z,97771.91
2024-04-25T03:38:59.665Z,97767.41
2024-04-25T03:41:29.380Z,97770.88
2024-04-25T03:43:58.383Z,97760.38
2024-04-25T03:46:25.511Z,97764.50
2024-04-25T03:48:55.581Z,97763.75
2024-04-25T03:51:22.482Z,97774.25
2024-04-25T03:53:49.381Z,97766.41
2024-04-25T03:56:16.412Z,97767.22
2024-04-25T03:58:43.286Z,97770.88
2024-04-25T04:01:11.360Z,97776.31
2024-04-25T04:03:38.249Z,97773.16
2024-04-25T04:06:05.470Z,97771.75
2024-04-25T04:08:32.433Z,97777.97
2024-04-25T04:11:01.358Z,97771.38
2024-04-25T04:13:28.290Z,97776.50
2024-04-25T04:15:55.146Z,97775.66
2024-04-25T04:18:22.131Z,97772.69
2024-04-25T04:20:52.049Z,97780.66
2024-04-25T04:23:19.030Z,97773.19
2024-04-25T04:25:46.662Z,97778.06
2024-04-25T04:28:15.903Z,97787.94
2024-04-25T04:30:42.915Z,97778.28
2024-04-25T04:33:10.040Z,97780.81
2024-04-25T04:35:38.048Z,97779.69
2024-04-25T04:38:06.119Z,97778.53
2024-04-25T04:40:32.996Z,97783.91
2024-04-25T04:42:59.956Z,97769.75
2024-04-25T04:45:26.949Z,97773.91
2024-04-25T04:47:53.919Z,97788.94
2024-04-25T04:50:20.933Z,97784.81
2024-04-25T04:52:48.092Z,97779.34
2024-04-25T04:55:16.112Z,97778.13
2024-04-25T04:57:42.965Z,97782.25
2024-04-25T05:00:10.384Z,97790.53
2024-04-25T05:02:37.655Z,97787.13
2024-04-25T05:05:04.866Z,97789.69
2024-04-25T05:07:36.007Z,97783.41
2024-04-25T05:10:03.633Z,97791.13
2024-04-25T05:12:30.500Z,97803.06
2024-04-25T05:14:59.386Z,97800.56
2024-04-25T05:17:26.385Z,97803.19
2024-04-25T05:19:54.271Z,97797.06
2024-04-25T05:22:21.131Z,97800.56
2024-04-25T05:24:48.311Z,97799.75
2024-04-25T05:27:15.149Z,97809.69
2024-04-25T05:29:42.030Z,97815.66
2024-04-25T05:32:09.306Z,97804.72
2024-04-25T05:34:36.554Z,97806.88
2024-04-25T05:37:03.461Z,97803.72
2024-04-25T05:39:30.461Z,97797.53
2024-04-25T05:41:57.305Z,97803.03
2024-04-25T05:44:24.228Z,97801.72
2024-04-25T05:46:51.063Z,97805.28
2024-04-25T05:49:17.973Z,97811.50
2024-04-25T05:51:44.815Z,97811.69
2024-04-25T05:54:11.659Z,97816.56
2024-04-25T05:56:38.611Z,97819.78
2024-04-25T05:59:05.594Z,97821.63
2024-04-25T06:01:32.538Z,97829.97
2024-04-25T06:04:05.785Z,97830.88
2024-04-25T06:06:34.091Z,97835.19
2024-04-25T06:09:00.961Z,97832.53
2024-04-25T06:11:30.049Z,97843.06
2024-04-25T06:13:57.467Z,97837.03
2024-04-25T06:16:25.923Z,97840.16
2024-04-25T06:18:54.804Z,97841.94
2024-04-25T06:21:21.722Z,97848.75
2024-04-25T06:23:48.615Z,97851.19
2024-04-25T06:26:15.589Z,97854.88
2024-04-25T06:28:44.122Z,97856.06
2024-04-25T06:31:11.085Z,97853.09
2024-04-25T06:33:41.484Z,97854.75
2024-04-25T06:36:11.282Z,97860.56
2024-04-25T06:38:38.600Z,97859.03
2024-04-25T06:41:05.531Z,97861.63
2024-04-25T06:43:35.179Z,97863.09
2024-04-25T06:46:02.652Z,97866.94
2024-04-25T06:48:29.660Z,97863.00
2024-04-25T06:50:56.554Z,97865.63
2024-04-25T06:53:25.189Z,97868.78
2024-04-25T06:55:52.061Z,97864.28
2024-04-25T06:58:20.729Z,97876.09
2024-04-25T07:00:47.647Z,97869.25
2024-04-25T07:03:15.210Z,97875.94
2024-04-25T07:05:42.326Z,97866.81
2024-04-25T07:08:12.128Z,97880.91
2024-04-25T07:10:41.286Z,97872.13
2024-04-25T07:13:08.220Z,97879.91
2024-04-25T07:15:35.558Z,97886.03
2024-04-25T07:18:06.339Z,97881.59
2024-04-25T07:20:33.979Z,97877.78
2024-04-25T07:23:01.493Z,97882.56
2024-04-25T07:25:28.716Z,97876.78
2024-04-25T07:27:55.739Z,97883.66
2024-04-25T07:30:22.580Z,97884.31
2024-04-25T07:32:49.599Z,97880.63
2024-04-25T07:35:16.658Z,97879.22
2024-04-25T07:37:43.687Z,97879.59
2024-04-25T07:40:10.850Z,97872.94
2024-04-25T07:42:37.847Z,97886.59
2024-04-25T07:45:05.557Z,97886.69
2024-04-25T07:47:32.474Z,97886.50
2024-04-25T07:49:59.765Z,97895.59
2024-04-25T07:52:30.017Z,97897.91
2024-04-25T07:54:57.359Z,97900.84
2024-04-25T07:57:24.288Z,97907.16
2024-04-25T07:59:54.766Z,97909.03
2024-04-25T08:02:22.991Z,97902.38
2024-04-25T08:04:50.219Z,97899.94
2024-04-25T08:07:17.201Z,97896.66
2024-04-25T08:09:44.150Z,97899.03
2024-04-25T08:12:11.032Z,97898.06
2024-04-25T08:14:45.259Z,97893.78
2024-04-25T08:17:12.553Z,97896.38
2024-04-25T08:19:39.415Z,97909.25
2024-04-25T08:22:07.106Z,97913.34
2024-04-25T08:24:34.011Z,97903.47
2024-04-25T08:27:02.283Z,97912.41
2024-04-25T08:29:29.136Z,97910.97
2024-04-25T08:31:56.091Z,97906.50
2024-04-25T08:34:23.502Z,97897.00
2024-04-25T08:36:50.559Z,97907.22
2024-04-25T08:39:18.162Z,97900.66
2024-04-25T08:41:49.301Z,97892.38
2024-04-25T08:44:17.302Z,97895.28
2024-04-25T08:46:47.107Z,97901.81
2024-04-25T08:49:16.168Z,97898.59
2024-04-25T08:51:44.232Z,97896.97
2024-04-25T08:54:19.481Z,97898.78
2024-04-25T08:56:46.432Z,97896.84
2024-04-25T08:59:13.444Z,97896.03
2024-04-25T09:01:41.687Z,97892.31
2024-04-25T09:04:15.526Z,97894.38
2024-04-25T09:06:43.462Z,97893.34
2024-04-25T09:09:11.426Z,97902.94
2024-04-25T09:11:41.452Z,97893.78
2024-04-25T09:14:10.925Z,97888.53
2024-04-25T09:16:37.995Z,97882.81
2024-04-25T09:19:05.160Z,97880.84
2024-04-25T09:21:31.988Z,97881.78
2024-04-25T09:23:58.863Z,97876.78
2024-04-25T09:26:29.835Z,97876.97
2024-04-25T09:28:58.484Z,97869.94
2024-04-25T09:31:26.297Z,97873.69
2024-04-25T09:33:59.647Z,97867.75
2024-04-25T09:36:26.812Z,97867.28
2024-04-25T09:38:56.683Z,97878.22
2024-04-25T09:41:23.909Z,97884.63
2024-04-25T09:43:51.418Z,97876.72
2024-04-25T09:46:45.169Z,97870.47
2024-04-25T09:49:18.059Z,97860.31
2024-04-25T09:51:55.653Z,97867.22
2024-04-25T09:54:44.628Z,97859.09
2024-04-25T09:57:20.167Z,97857.41
2024-04-25T10:00:05.793Z,97868.31
2024-04-25T10:02:33.701Z,97877.56
2024-04-25T10:05:01.488Z,97867.41
2024-04-25T10:07:31.102Z,97862.31
2024-04-25T10:10:01.173Z,97863.66
2024-04-25T10:12:28.127Z,97846.38
2024-04-25T10:14:56.830Z,97839.84
2024-04-25T10:17:25.351Z,97838.13
2024-04-25T10:19:52.328Z,97833.06
2024-04-25T10:22:24.122Z,97823.44
2024-04-25T10:25:02.319Z,97825.25
2024-04-25T10:27:31.690Z,97824.72
2024-04-25T10:30:06.737Z,97818.53
2024-04-25T10:32:36.512Z,97808.63
2024-04-25T10:35:03.920Z,97801.44
2024-04-25T10:37:37.878Z,97811.66
2024-04-25T10:40:16.377Z,97803.22
2024-04-25T10:43:05.127Z,97806.09
2024-04-25T10:45:33.717Z,97796.09
2024-04-25T10:48:02.210Z,97809.56
2024-04-25T10:50:30.974Z,97801.66
2024-04-25T10:53:00.960Z,97810.53
2024-04-25T10:55:28.452Z,97799.47
2024-04-25T10:57:56.752Z,97796.28
2024-04-25T11:00:24.506Z,97799.34
2024-04-25T11:02:56.246Z,97796.31
2024-04-25T11:05:23.416Z,97792.44
2024-04-25T11:07:53.243Z,97803.13
2024-04-25T11:10:22.724Z,97794.78
2024-04-25T11:12:50.245Z,97790.41
2024-04-25T11:15:20.145Z,97788.25
2024-04-25T11:18:00.143Z,97777.88
2024-04-25T11:20:32.985Z,97779.53
2024-04-25T11:23:17.429Z,97780.31
2024-04-25T11:25:49.751Z,97767.31
2024-04-25T11:28:19.078Z,97779.72
2024-04-25T11:30:46.136Z,97772.19
2024-04-25T11:33:20.264Z,97763.53
2024-04-25T11:35:47.355Z,97767.91
2024-04-25T11:38:17.094Z,97764.41
2024-04-25T11:40:49.769Z,97770.00
2024-04-25T11:43:20.186Z,97764.56
2024-04-25T11:45:48.117Z,97760.00
2024-04-25T11:48:19.642Z,97755.53
2024-04-25T11:50:46.993Z,97759.00
2024-04-25T11:53:14.251Z,97761.63
2024-04-25T11:55:42.223Z,97760.84
2024-04-25T11:58:09.780Z,97765.94
2024-04-25T12:00:39.770Z,97762.94
2024-04-25T12:03:07.293Z,97775.69
2024-04-25T12:05:35.731Z,97767.25
2024-04-25T12:08:06.617Z,97757.66
2024-04-25T12:10:33.834Z,97766.03
2024-04-25T12:13:02.443Z,97768.03
2024-04-25T12:15:29.288Z,97756.94
2024-04-25T12:17:56.507Z,97764.56
2024-04-25T12:20:23.471Z,97756.44
2024-04-25T12:22:52.280Z,97754.94
2024-04-25T12:25:19.131Z,97755.31
2024-04-25T12:27:45.946Z,97754.09
2024-04-25T12:30:13.183Z,97751.50
2024-04-25T12:32:40.103Z,97748.53
2024-04-25T12:35:07.213Z,97753.84
2024-04-25T12:37:34.123Z,97752.75
2024-04-25T12:40:01.060Z,97750.00
2024-04-25T12:42:29.980Z,97751.25
2024-04-25T12:44:56.951Z,97753.94
2024-04-25T12:47:23.935Z,97756.41
2024-04-25T12:49:50.936Z,97756.63
2024-04-25T12:52:17.784Z,97761.75
2024-04-25T12:54:44.616Z,97755.91
2024-04-25T12:57:21.788Z,97754.06
2024-04-25T12:59:51.329Z,97739.44
2024-04-25T13:02:21.576Z,97742.28
2024-04-25T13:04:49.381Z,97745.59
2024-04-25T13:07:16.404Z,97741.03
2024-04-25T13:09:43.621Z,97747.28
2024-04-25T13:12:11.683Z,97742.28
2024-04-25T13:14:39.947Z,97739.53
2024-04-25T13:17:07.020Z,97747.00
2024-04-25T13:19:35.289Z,97739.88
2024-04-25T13:22:06.349Z,97746.59
2024-04-25T13:24:33.232Z,97743.53
2024-04-25T13:27:03.111Z,97749.88
2024-04-25T13:29:30.609Z,97752.84
2024-04-25T13:31:57.600Z,97754.31
2024-04-25T13:34:24.538Z,97765.41
2024-04-25T13:36:52.366Z,97766.75
2024-04-25T13:39:19.770Z,97767.25
2024-04-25T13:41:46.979Z,97767.03
2024-04-25T13:44:14.110Z,97763.72
2024-04-25T13:46:41.137Z,97761.59
2024-04-25T13:49:08.868Z,97771.22
2024-04-25T13:51:35.743Z,97765.25
2024-04-25T13:54:07.760Z,97763.94
2024-04-25T13:56:35.239Z,97768.88
2024-04-25T13:59:04.865Z,97764.03
2024-04-25T14:01:32.573Z,97759.13
2024-04-25T14:04:02.329Z,97756.81
2024-04-25T14:06:31.353Z,97757.56
2024-04-25T14:08:58.250Z,97753.44
2024-04-25T14:11:25.225Z,97750.06
2024-04-25T14:13:54.139Z,97755.06
2024-04-25T14:16:21.864Z,97750.63
2024-04-25T14:18:51.208Z,97749.69
2024-04-25T14:21:20.187Z,97745.16
2024-04-25T14:23:47.207Z,97741.06
2024-04-25T14:26:33.047Z,97744.81
2024-04-25T14:29:00.292Z,97746.03
2024-04-25T14:31:27.160Z,97740.22
2024-04-25T14:33:56.426Z,97737.41
2024-04-25T14:36:23.408Z,97735.44
2024-04-25T14:38:50.621Z,97732.84
2024-04-25T14:41:19.264Z,97737.34
2024-04-25T14:43:51.802Z,97726.22
2024-04-25T14:46:24.925Z,97734.03
2024-04-25T14:48:53.085Z,97731.69
2024-04-25T14:51:20.105Z,97737.78
2024-04-25T14:53:52.076Z,97734.69
2024-04-25T14:56:19.016Z,97731.88
2024-04-25T14:58:46.016Z,97727.03
2024-04-25T15:01:20.457Z,97727.41
2024-04-25T15:03:57.678Z,97715.88
2024-04-25T15:06:24.702Z,97707.59
2024-04-25T15:08:51.618Z,97713.97
2024-04-25T15:11:20.242Z,97716.09
2024-04-25T15:13:47.222Z,97713.28
2024-04-25T15:16:14.065Z,97711.25
2024-04-25T15:18:42.685Z,97716.75
2024-04-25T15:21:10.863Z,97719.34
2024-04-25T15:23:40.874Z,97721.84
2024-04-25T15:26:07.809Z,97717.28
2024-04-25T15:28:35.416Z,97717.16
2024-04-25T15:31:02.439Z,97713.00
2024-04-25T15:33:29.527Z,97715.16
2024-04-25T15:35:56.576Z,97711.50
2024-04-25T15:38:25.064Z,97711.28
2024-04-25T15:40:51.933Z,97709.41
2024-04-25T15:43:18.810Z,97713.34
2024-04-25T15:45:45.663Z,97705.84
2024-04-25T15:48:14.703Z,97703.06
2024-04-25T15:50:41.660Z,97693.56
2024-04-25T15:53:09.785Z,97700.47
2024-04-25T15:55:38.441Z,97696.81
2024-04-25T15:58:05.539Z,97697.88
2024-04-25T16:00:32.395Z,97700.97
2024-04-25T16:02:59.680Z,97701.91
2024-04-25T16:05:26.882Z,97696.13
2024-04-25T16:07:59.215Z,97694.41
2024-04-25T16:10:26.117Z,97687.13
2024-04-25T16:12:52.947Z,97693.84
2024-04-25T16:15:19.785Z,97699.38
2024-04-25T16:17:47.939Z,97690.94
2024-04-25T16:20:14.988Z,97697.81
2024-04-25T16:22:41.886Z,97691.81
2024-04-25T16:25:10.796Z,97690.06
2024-04-25T16:27:37.690Z,97690.28
2024-04-25T16:30:05.612Z,97689.03
2024-04-25T16:32:35.794Z,97684.44
2024-04-25T16:35:03.818Z,97681.75
2024-04-25T16:37:30.779Z,97683.22
2024-04-25T16:40:00.483Z,97677.63
2024-04-25T16:42:27.646Z,97674.16
2024-04-25T16:44:55.907Z,97677.81
2024-04-25T16:47:24.499Z,97688.91
2024-04-25T16:49:51.429Z,97690.41
2024-04-25T16:52:18.266Z,97688.91
2024-04-25T16:54:45.161Z,97687.47
2024-04-25T16:57:12.083Z,97676.38
2024-04-25T16:59:39.511Z,97680.66
2024-04-25T17:02:07.266Z,97681.91
2024-04-25T17:04:39.731Z,97677.59
2024-04-25T17:07:07.368Z,97679.09
2024-04-25T17:09:34.721Z,97674.44
2024-04-25T17:12:02.214Z,97677.59
2024-04-25T17:14:29.257Z,97673.16
2024-04-25T17:17:02.387Z,97674.53
2024-04-25T17:19:30.386Z,97669.63
2024-04-25T17:21:59.318Z,97664.53
2024-04-25T17:24:26.332Z,97671.59
2024-04-25T17:26:53.242Z,97670.34
2024-04-25T17:29:21.608Z,97670.19
2024-04-25T17:31:48.719Z,97671.31
2024-04-25T17:34:15.957Z,97675.63
2024-04-25T17:36:47.192Z,97672.22
2024-04-25T17:39:14.575Z,97662.28
2024-04-25T17:41:41.984Z,97669.00
2024-04-25T17:44:08.928Z,97674.16
2024-04-25T17:46:35.808Z,97672.41
2024-04-25T17:49:12.149Z,97674.22
2024-04-25T17:51:42.977Z,97667.94
2024-04-25T17:54:12.124Z,97666.75
2024-04-25T17:56:40.610Z,97673.31
2024-04-25T17:59:07.652Z,97674.72
2024-04-25T18:01:35.733Z,97670.25
2024-04-25T18:04:02.586Z,97683.03
2024-04-25T18:06:29.423Z,97683.63
2024-04-25T18:08:58.234Z,97687.53
2024-04-25T18:11:25.238Z,97675.34
2024-04-25T18:13:52.180Z,97687.00
2024-04-25T18:16:19.052Z,97683.16
2024-04-25T18:18:46.913Z,97683.41
2024-04-25T18:21:13.784Z,97687.22
2024-04-25T18:23:40.706Z,97690.84
2024-04-25T18:26:10.600Z,97687.91
2024-04-25T18:28:41.323Z,97698.19
2024-04-25T18:31:08.178Z,97695.69
2024-04-25T18:33:35.124Z,97691.44
2024-04-25T18:36:02.121Z,97695.28
2024-04-25T18:38:29.013Z,97692.66
2024-04-25T18:40:55.914Z,97695.19
2024-04-25T18:43:22.758Z,97693.72
2024-04-25T18:45:49.628Z,97694.34
2024-04-25T18:48:17.927Z,97695.44
2024-04-25T18:50:45.094Z,97697.38
2024-04-25T18:53:11.986Z,97694.88
2024-04-25T18:55:39.098Z,97694.44
2024-04-25T18:58:07.628Z,97705.16
2024-04-25T19:00:37.146Z,97696.81
2024-04-25T19:03:05.184Z,97704.97
2024-04-25T19:05:32.222Z,97702.66
2024-04-25T19:07:59.157Z,97702.66
2024-04-25T19:10:26.127Z,97699.06
2024-04-25T19:12:53.021Z,97702.19
2024-04-25T19:15:21.993Z,97708.72
2024-04-25T19:17:49.015Z,97700.50
2024-04-25T19:20:16.008Z,97703.31
2024-04-25T19:22:44.436Z,97704.47
2024-04-25T19:25:12.513Z,97707.75
2024-04-25T19:27:39.395Z,97704.75
2024-04-25T19:30:07.312Z,97710.03
2024-04-25T19:32:34.361Z,97697.69
2024-04-25T19:35:01.237Z,97705.25
2024-04-25T19:37:29.928Z,97692.97
2024-04-25T19:39:58.262Z,97707.16
2024-04-25T19:42:26.958Z,97704.06
2024-04-25T19:44:53.905Z,97707.78
2024-04-25T19:47:20.891Z,97706.03
2024-04-25T19:49:47.818Z,97703.56
2024-04-25T19:52:15.076Z,97711.41
2024-04-25T19:54:42.615Z,97709.81
2024-04-25T19:57:17.841Z,97709.94
2024-04-25T19:59:45.081Z,97703.16
2024-04-25T20:02:12.437Z,97716.09
2024-04-25T20:04:39.419Z,97708.94
2024-04-25T20:07:06.344Z,97711.94
2024-04-25T20:09:33.183Z,97713.44
2024-04-25T20:12:01.505Z,97710.84
2024-04-25T20:14:29.807Z,97712.44
2024-04-25T20:16:56.697Z,97709.31
2024-04-25T20:19:42.194Z,97716.59
2024-04-25T20:22:09.898Z,97711.16
2024-04-25T20:24:36.815Z,97716.78
2024-04-25T20:27:03.941Z,97714.94
2024-04-25T20:29:32.372Z,97721.25
2024-04-25T20:31:59.652Z,97709.25
2024-04-25T20:34:26.626Z,97717.09
2024-04-25T20:36:53.543Z,97710.41
2024-04-25T20:39:21.411Z,97726.16
2024-04-25T20:41:49.736Z,97710.50
2024-04-25T20:44:17.415Z,97720.09
2024-04-25T20:46:44.382Z,97721.41
2024-04-25T20:49:11.254Z,97712.81
2024-04-25T20:51:41.053Z,97711.81
2024-04-25T20:54:10.574Z,97707.50
2024-04-25T20:56:41.649Z,97716.19
2024-04-25T20:59:10.220Z,97705.03
2024-04-25T21:01:39.958Z,97709.09
2024-04-25T21:04:06.942Z,97713.44
2024-04-25T21:06:41.866Z,97707.66
2024-04-25T21:09:11.469Z,97706.97
2024-04-25T21:11:38.818Z,97703.41
2024-04-25T21:14:06.172Z,97709.44
2024-04-25T21:16:40.695Z,97709.44
2024-04-25T21:19:08.009Z,97706.63
2024-04-25T21:21:34.879Z,97705.06
2024-04-25T21:24:01.861Z,97703.97
2024-04-25T21:26:28.914Z,97700.72
2024-04-25T21:28:56.910Z,97705.53
2024-04-25T21:31:25.245Z,97701.78
2024-04-25T21:33:52.335Z,97698.63
2024-04-25T21:36:19.393Z,97700.72
2024-04-25T21:38:46.269Z,97711.16
2024-04-25T21:41:14.141Z,97701.59
2024-04-25T21:43:42.616Z,97707.88
2024-04-25T21:46:12.321Z,97704.03
2024-04-25T21:48:48.017Z,97700.53
2024-04-25T21:51:16.952Z,97702.59
2024-04-25T21:53:46.164Z,97700.59
2024-04-25T21:56:17.918Z,97701.16
2024-04-25T21:58:45.401Z,97702.59
2024-04-25T22:01:12.624Z,97701.66
2024-04-25T22:03:43.255Z,97695.94
2024-04-25T22:06:18.766Z,97695.53
2024-04-25T22:08:46.328Z,97687.13
2024-04-25T22:11:14.038Z,97692.47
2024-04-25T22:13:42.707Z,97691.28
2024-04-25T22:16:11.335Z,97691.78
2024-04-25T22:18:40.022Z,97691.69
2024-04-25T22:21:07.520Z,97690.94
2024-04-25T22:23:38.230Z,97687.88
2024-04-25T22:26:05.347Z,97692.44
2024-04-25T22:28:32.249Z,97692.19
2024-04-25T22:30:59.086Z,97691.31
2024-04-25T22:33:28.007Z,97687.66
2024-04-25T22:35:55.037Z,97691.06
2024-04-25T22:38:21.965Z,97685.47
2024-04-25T22:40:49.492Z,97694.50
2024-04-25T22:43:16.369Z,97685.88
2024-04-25T22:45:43.210Z,97690.31
2024-04-25T22:48:11.649Z,97688.41
2024-04-25T22:50:38.767Z,97686.16
2024-04-25T22:53:05.746Z,97692.53
2024-04-25T22:55:32.636Z,97683.00
2024-04-25T22:58:00.570Z,97684.31
2024-04-25T23:00:28.765Z,97695.25
2024-04-25T23:02:56.438Z,97693.75
2024-04-25T23:05:34.695Z,97680.84
2024-04-25T23:08:02.168Z,97682.59
2024-04-25T23:10:30.217Z,97676.06
2024-04-25T23:12:57.069Z,97682.97
2024-04-25T23:15:24.014Z,97676.22
2024-04-25T23:17:50.997Z,97683.38
2024-04-25T23:20:17.903Z,97676.13
2024-04-25T23:22:45.232Z,97678.31
2024-04-25T23:25:12.071Z,97670.00
2024-04-25T23:27:38.933Z,97675.03
2024-04-25T23:30:06.618Z,97671.19
2024-04-25T23:32:33.514Z,97672.59
2024-04-25T23:35:00.368Z,97673.63
2024-04-25T23:37:27.231Z,97668.06
2024-04-25T23:40:00.609Z,97668.81
2024-04-25T23:42:30.560Z,97666.78
2024-04-25T23:44:57.487Z,97668.41
2024-04-25T23:47:26.478Z,97672.22
2024-04-25T23:49:53.369Z,97663.22
2024-04-25T23:52:20.564Z,97667.75
2024-04-25T23:54:47.786Z,97663.78
2024-04-25T23:57:14.993Z,97667.16
2024-04-25T23:59:42.215Z,97666.19
